Aérodrome :







RETROUVEZ-NOUS SUR...

 
LOGIN :

S'inscrire | Disclaimer

   EN    FR    IT 

 









Légende :    VFR   VFR Marginal   IFR   IFR Intensif   IFR Très Intensif
Visi : 
Plafond : 
>= 8 km
>= 3000ft
5 à 8 km
1000 à 3000 ft
1500m à 5 km
500 à 1000 ft
800 à 1500m
200 à 500 ft
< 800m
< 200 ft
Symboles :   Orages  Brouillard  Fortes neiges  Fortes précipitations  Vent > 20 kt






- Altitude de l'aérodrome : 215 ft
- Code IATA : MSS


KMSS - Massena International Richards Field

DERNIER METAR :
  • 150153Z AUTO 24010KT 8SM -RA BKN005 OVC010 03/01 A2903 RMK AO2 SLP834 P0006 T00280011

METARs EXPIRÉS :
  • 150126Z AUTO 23006KT 6SM RA BR BKN005 BKN009 OVC021 03/02 A2902 RMK AO2 P0003 T00280017
  • 150104Z AUTO 28006KT 5SM -RA BR FEW006 SCT011 OVC019 03/02 A2902 RMK AO2 P0001 T00280017
  • 150053Z AUTO 28007KT 4SM RA BR SCT007 OVC014 03/02 A2903 RMK AO2 SLP834 P0012 T00280017
  • 150030Z AUTO 26005KT 3SM -RA BR OVC009 03/02 A2904 RMK AO2 P0008 T00280017
  • 150027Z AUTO 26005KT 2 1/2SM -RA BR OVC011 03/02 A2904 RMK AO2 P0007 T00280017
  • 150005Z AUTO 00000KT 2SM RA BR BKN004 OVC008 03/02 A2905 RMK AO2 P0003 T00280017
  • 142353Z AUTO 28003KT 5SM -RA BR OVC004 03/02 A2905 RMK AO2 SLP840 P0005 60024 T00280017 10033 20028 58025

TAF KMSS
Valide du 15 à 00h jusqu'au 16 à 00h UTC


142325Z 1500/1524 06008KT 3SM -RA BR OVC004
FM150500 26014G22KT 3/4SM -SN BR OVC002
FM150800 25022G33KT 2SM -SN BR OVC010
FM151000 25022G34KT 6SM -SHSN BLSN OVC018
FM151700 26019G35KT 2SM BR VCSH OVC017
FM151900 26019G34KT P6SM OVC020



MET'MAP, la Météo Aéronautique d'un coup d'oeil ! - Copyright ORBIFLY Décembre 2007 - Disclaimer

ORBIFLY MET'MAP TEAM :

Programmation & Développement : Alexandra Zaïnal
Sur une idée originale de : Baudouin d'Aumeries
Assistance à la programmation : Marc-Olivier Méhu
Soutien technique & logistique : Manuel Goepfert

Contact : metmap@orbifly.com




SOURCES & CREDITS :

   NOAA